Time,TemperatureF,DewpointF,PressureIn,WindDirection,WindDirectionDegrees,WindSpeedMPH,WindSpeedGustMPH,Humidity,HourlyPrecipIn,Conditions,Clouds,dailyrainin,SolarRadiationWatts/m^2,SoftwareType,DateUTC
2013-09-30 00:04:00,56.0,52.0,-100.00,SE,142,4.0,8.0,85,0.00,,,0.00,0.000000,,2013-09-30 04:04:00,
2013-09-30 00:44:00,56.0,52.0,-100.00,South,174,4.0,6.0,85,0.00,,,0.00,0.000000,,2013-09-30 04:44:00,
2013-09-30 00:53:00,56.0,52.0,-100.00,South,174,4.0,6.0,85,0.00,,,0.00,0.000000,,2013-09-30 04:53:00,
2013-09-30 01:03:00,56.0,52.0,-100.00,South,174,4.0,6.0,85,0.00,,,0.00,0.000000,,2013-09-30 05:03:00,
2013-09-30 01:43:00,55.0,51.0,-100.00,South,175,4.0,8.0,87,0.00,,,0.00,0.000000,,2013-09-30 05:43:00,
2013-09-30 01:52:00,55.0,51.0,-100.00,South,175,4.0,8.0,87,0.00,,,0.00,0.000000,,2013-09-30 05:52:00,
2013-09-30 02:03:00,55.0,51.0,-100.00,South,175,4.0,8.0,87,0.00,,,0.00,0.000000,,2013-09-30 06:03:00,
2013-09-30 02:42:00,55.0,51.0,-100.00,SSE,156,4.0,8.0,86,0.00,,,0.00,0.000000,,2013-09-30 06:42:00,
2013-09-30 02:52:00,55.0,51.0,-100.00,SSE,156,4.0,8.0,86,0.00,,,0.00,0.000000,,2013-09-30 06:52:00,
2013-09-30 03:02:00,55.0,51.0,-100.00,SSE,156,4.0,8.0,86,0.00,,,0.00,0.000000,,2013-09-30 07:02:00,
2013-09-30 03:42:00,54.0,51.0,-100.00,South,185,4.0,7.0,88,0.00,,,0.00,0.000000,,2013-09-30 07:42:00,
2013-09-30 03:53:00,54.0,51.0,-100.00,South,185,4.0,7.0,88,0.00,,,0.00,0.000000,,2013-09-30 07:53:00,
2013-09-30 04:02:00,54.0,51.0,-100.00,South,185,4.0,7.0,88,0.00,,,0.00,0.000000,,2013-09-30 08:02:00,
2013-09-30 04:42:00,53.0,51.0,-100.00,SSW,203,4.0,7.0,93,0.00,,,0.00,0.000000,,2013-09-30 08:42:00,
2013-09-30 04:52:00,53.0,51.0,-100.00,SSW,203,4.0,7.0,93,0.00,,,0.00,0.000000,,2013-09-30 08:52:00,
2013-09-30 05:02:00,53.0,51.0,-100.00,SSW,203,4.0,7.0,93,0.00,,,0.00,0.000000,,2013-09-30 09:02:00,
2013-09-30 05:42:00,53.0,53.0,-100.00,SSW,203,3.0,6.0,100,0.00,,,0.00,0.000000,,2013-09-30 09:42:00,
2013-09-30 05:54:00,53.0,53.0,-100.00,SSW,203,3.0,6.0,100,0.00,,,0.00,0.000000,,2013-09-30 09:54:00,
2013-09-30 06:03:00,53.0,53.0,-100.00,SSW,203,3.0,6.0,100,0.00,,,0.00,0.000000,,2013-09-30 10:03:00,
2013-09-30 06:43:00,51.0,51.0,-100.00,SSW,192,3.0,5.0,100,0.00,,,0.00,0.000000,,2013-09-30 10:43:00,
2013-09-30 06:53:00,51.0,51.0,-100.00,SSW,192,3.0,5.0,100,0.00,,,0.00,0.000000,,2013-09-30 10:53:00,
2013-09-30 07:03:00,51.0,51.0,-100.00,SSW,192,3.0,5.0,100,0.00,,,0.00,0.000000,,2013-09-30 11:03:00,
2013-09-30 07:43:00,51.0,51.0,-100.00,SSW,211,3.0,5.0,100,0.00,,,0.00,2.000000,,2013-09-30 11:43:00,
2013-09-30 07:52:00,51.0,51.0,-100.00,SSW,211,3.0,5.0,100,0.00,,,0.00,2.000000,,2013-09-30 11:52:00,
2013-09-30 08:02:00,51.0,51.0,-100.00,SSW,211,3.0,5.0,100,0.00,,,0.00,2.000000,,2013-09-30 12:02:00,
2013-09-30 08:52:00,53.0,53.0,-100.00,SSW,201,3.0,5.0,100,0.00,,,0.00,39.000000,,2013-09-30 12:52:00,
2013-09-30 09:01:00,53.0,53.0,-100.00,SSW,201,3.0,5.0,100,0.00,,,0.00,39.000000,,2013-09-30 13:01:00,
2013-09-30 11:45:00,65.0,55.0,-100.00,WSW,248,3.0,7.0,71,0.00,,,0.00,597.000000,,2013-09-30 15:45:00,
2013-09-30 11:54:00,65.0,55.0,-100.00,WSW,248,3.0,7.0,71,0.00,,,0.00,597.000000,,2013-09-30 15:54:00,
2013-09-30 12:05:00,65.0,55.0,-100.00,WSW,248,3.0,7.0,71,0.00,,,0.00,597.000000,,2013-09-30 16:05:00,
2013-09-30 12:44:00,67.0,56.0,-100.00,West,266,3.0,7.0,67,0.00,,,0.00,692.000000,,2013-09-30 16:44:00,
2013-09-30 12:54:00,67.0,56.0,-100.00,West,266,3.0,7.0,67,0.00,,,0.00,692.000000,,2013-09-30 16:54:00,
2013-09-30 13:04:00,67.0,56.0,-100.00,West,266,3.0,7.0,67,0.00,,,0.00,692.000000,,2013-09-30 17:04:00,
2013-09-30 13:43:00,68.0,53.0,-100.00,West,265,4.0,7.0,58,0.00,,,0.00,684.000000,,2013-09-30 17:43:00,
2013-09-30 13:53:00,68.0,53.0,-100.00,West,265,4.0,7.0,58,0.00,,,0.00,684.000000,,2013-09-30 17:53:00,
2013-09-30 14:02:00,68.0,53.0,-100.00,West,265,4.0,7.0,58,0.00,,,0.00,684.000000,,2013-09-30 18:02:00,
2013-09-30 14:42:00,68.0,50.0,-100.00,NE,41,3.0,10.0,52,0.00,,,0.00,580.000000,,2013-09-30 18:42:00,
2013-09-30 14:54:00,68.0,50.0,-100.00,NE,41,3.0,10.0,52,0.00,,,0.00,580.000000,,2013-09-30 18:54:00,
2013-09-30 15:02:00,68.0,50.0,-100.00,NE,41,3.0,10.0,52,0.00,,,0.00,580.000000,,2013-09-30 19:02:00,
2013-09-30 15:42:00,71.0,50.0,-100.00,WSW,249,4.0,8.0,48,0.00,,,0.00,616.000000,,2013-09-30 19:42:00,
2013-09-30 15:53:00,71.0,50.0,-100.00,WSW,249,4.0,8.0,48,0.00,,,0.00,616.000000,,2013-09-30 19:53:00,
2013-09-30 16:02:00,71.0,50.0,-100.00,WSW,249,4.0,8.0,48,0.00,,,0.00,616.000000,,2013-09-30 20:02:00,
2013-09-30 16:43:00,72.0,50.0,-100.00,East,96,3.0,9.0,46,0.00,,,0.00,475.000000,,2013-09-30 20:43:00,
2013-09-30 16:53:00,72.0,50.0,-100.00,East,96,3.0,9.0,46,0.00,,,0.00,475.000000,,2013-09-30 20:53:00,
2013-09-30 17:02:00,72.0,50.0,-100.00,East,96,3.0,9.0,46,0.00,,,0.00,475.000000,,2013-09-30 21:02:00,
2013-09-30 17:44:00,72.0,51.0,-100.00,NE,41,2.0,7.0,47,0.00,,,0.00,314.000000,,2013-09-30 21:44:00,
2013-09-30 17:54:00,72.0,51.0,-100.00,NE,41,2.0,7.0,47,0.00,,,0.00,314.000000,,2013-09-30 21:54:00,
2013-09-30 18:03:00,72.0,51.0,-100.00,NE,41,2.0,7.0,47,0.00,,,0.00,314.000000,,2013-09-30 22:03:00,
2013-09-30 18:44:00,67.0,48.0,-100.00,SE,124,1.0,7.0,51,0.00,,,0.00,122.000000,,2013-09-30 22:44:00,
2013-09-30 18:54:00,67.0,48.0,-100.00,SE,124,1.0,7.0,51,0.00,,,0.00,122.000000,,2013-09-30 22:54:00,
2013-09-30 19:03:00,67.0,48.0,-100.00,SE,124,1.0,7.0,51,0.00,,,0.00,122.000000,,2013-09-30 23:03:00,
2013-09-30 19:43:00,60.0,50.0,-100.00,SE,126,3.0,4.0,70,0.00,,,0.00,15.000000,,2013-09-30 23:43:00,
2013-09-30 19:54:00,60.0,50.0,-100.00,SE,126,3.0,4.0,70,0.00,,,0.00,15.000000,,2013-09-30 23:54:00,
2013-09-30 20:03:00,60.0,50.0,-100.00,SE,126,3.0,4.0,70,0.00,,,0.00,15.000000,,2013-10-01 00:03:00,
2013-09-30 20:43:00,60.0,50.0,-100.00,SSE,151,4.0,7.0,70,0.00,,,0.00,0.000000,,2013-10-01 00:43:00,
2013-09-30 20:52:00,60.0,50.0,-100.00,SSE,151,4.0,7.0,70,0.00,,,0.00,0.000000,,2013-10-01 00:52:00,
2013-09-30 21:03:00,60.0,50.0,-100.00,SSE,151,4.0,7.0,70,0.00,,,0.00,0.000000,,2013-10-01 01:03:00,
2013-09-30 21:42:00,61.0,48.0,-100.00,South,172,5.0,8.0,63,0.00,,,0.00,0.000000,,2013-10-01 01:42:00,
2013-09-30 21:52:00,61.0,48.0,-100.00,South,172,5.0,8.0,63,0.00,,,0.00,0.000000,,2013-10-01 01:52:00,
2013-09-30 22:02:00,61.0,48.0,-100.00,South,172,5.0,8.0,63,0.00,,,0.00,0.000000,,2013-10-01 02:02:00,
2013-09-30 22:43:00,60.0,48.0,-100.00,South,186,5.0,8.0,64,0.00,,,0.00,0.000000,,2013-10-01 02:43:00,
2013-09-30 22:52:00,60.0,48.0,-100.00,South,186,5.0,8.0,64,0.00,,,0.00,0.000000,,2013-10-01 02:52:00,
2013-09-30 23:03:00,60.0,48.0,-100.00,South,186,5.0,8.0,64,0.00,,,0.00,0.000000,,2013-10-01 03:03:00,
2013-09-30 23:44:00,61.0,49.0,-100.00,SSW,210,7.0,10.0,64,0.00,,,0.00,0.000000,,2013-10-01 03:44:00,
2013-09-30 23:55:00,61.0,49.0,-100.00,SSW,210,7.0,10.0,64,0.00,,,0.00,0.000000,,2013-10-01 03:55:00,